Time;durP1;ratioP1;P1;durP2;ratioP2;P2;SDS_P1;SDS_P2;PMS_P1;PMS_P2;Temp;Humidity;BMP_temperature;BMP_pressure;BME280_temperature;BME280_humidity;BME280_pressure;Samples;Min_cycle;Max_cycle;Signal;HPM_P1;HPM_P2
2022/12/18 00:00:07;;;;;;;0.88;0.88;;;;;;;;;;5063792;28;20051;-87
2022/12/18 00:02:36;;;;;;;0.50;0.50;;;;;;;;;;5056886;28;20055;-86
2022/12/18 00:05:05;;;;;;;1.00;0.85;;;;;;;;;;5061581;28;20049;-87
2022/12/18 00:07:34;;;;;;;0.50;0.50;;;;;;;;;;5072297;28;20048;-85
2022/12/18 00:10:03;;;;;;;1.65;1.55;;;;;;;;;;5065925;28;20072;-86
2022/12/18 00:12:31;;;;;;;1.05;0.60;;;;;;;;;;5058934;28;20185;-85
2022/12/18 00:14:59;;;;;;;0.38;0.38;;;;;;;;;;5079238;28;20062;-86
2022/12/18 00:17:29;;;;;;;1.75;1.65;;;;;;;;;;5071360;28;20055;-85
2022/12/18 00:19:58;;;;;;;2.03;1.92;;;;;;;;;;5069932;28;20049;-86
2022/12/18 00:22:26;;;;;;;13.15;1.10;;;;;;;;;;5072770;28;20071;-85
2022/12/18 00:24:54;;;;;;;1.88;1.23;;;;;;;;;;5061346;28;20055;-85
2022/12/18 00:27:23;;;;;;;0.57;0.57;;;;;;;;;;5072469;28;20115;-85
2022/12/18 00:29:51;;;;;;;0.30;0.30;;;;;;;;;;5068000;28;20112;-85
2022/12/18 00:32:20;;;;;;;1.52;1.42;;;;;;;;;;5071195;28;20079;-86
2022/12/18 00:34:50;;;;;;;3.30;0.90;;;;;;;;;;5059111;28;20516;-85
2022/12/18 00:37:18;;;;;;;5.13;1.90;;;;;;;;;;5064145;28;20057;-85
2022/12/18 00:39:50;;;;;;;0.30;0.30;;;;;;;;;;5067320;28;20473;-85
2022/12/18 00:45:04;;;;;;;2.70;1.67;;;;;;;;;;5070948;28;20051;-85
2022/12/18 00:47:39;;;;;;;0.40;0.40;;;;;;;;;;5071528;28;20048;-85
2022/12/18 00:50:11;;;;;;;7.15;0.73;;;;;;;;;;5068937;28;20060;-85
2022/12/18 00:52:42;;;;;;;0.30;0.30;;;;;;;;;;5061323;28;20067;-85
2022/12/18 00:55:11;;;;;;;0.60;0.60;;;;;;;;;;5071344;28;20048;-86
2022/12/18 00:57:39;;;;;;;0.88;0.88;;;;;;;;;;5073764;28;20098;-85
2022/12/18 01:00:09;;;;;;;1.58;0.40;;;;;;;;;;5062318;28;20052;-85
2022/12/18 01:02:38;;;;;;;0.95;0.95;;;;;;;;;;5070729;28;20084;-86
2022/12/18 01:05:06;;;;;;;4.85;0.98;;;;;;;;;;5061573;28;20353;-86
2022/12/18 01:07:36;;;;;;;1.50;1.25;;;;;;;;;;5069757;28;20045;-86
2022/12/18 01:10:06;;;;;;;1.00;1.00;;;;;;;;;;5065426;28;20048;-87
2022/12/18 01:12:34;;;;;;;2.30;1.25;;;;;;;;;;5067911;28;20128;-88
2022/12/18 01:15:03;;;;;;;0.30;0.30;;;;;;;;;;5062640;28;20415;-87
2022/12/18 01:17:31;;;;;;;0.50;0.50;;;;;;;;;;5067308;28;20044;-86
2022/12/18 01:20:00;;;;;;;1.35;1.25;;;;;;;;;;5070189;28;20478;-87
2022/12/18 01:22:28;;;;;;;0.70;0.70;;;;;;;;;;5073201;28;20085;-87
2022/12/18 01:24:58;;;;;;;0.70;0.50;;;;;;;;;;5068955;28;20162;-87
2022/12/18 01:27:27;;;;;;;0.20;0.20;;;;;;;;;;5069182;28;20420;-87
2022/12/18 01:29:55;;;;;;;0.30;0.30;;;;;;;;;;5072072;28;20054;-87
2022/12/18 01:32:23;;;;;;;0.70;0.70;;;;;;;;;;5060877;28;20076;-87
2022/12/18 01:34:52;;;;;;;0.73;0.65;;;;;;;;;;5067249;28;20044;-87
2022/12/18 01:37:20;;;;;;;0.88;0.88;;;;;;;;;;5069175;28;20136;-87
2022/12/18 01:39:49;;;;;;;0.40;0.40;;;;;;;;;;5069120;28;20053;-87
2022/12/18 01:42:19;;;;;;;0.52;0.52;;;;;;;;;;5072012;28;20057;-87
2022/12/18 01:44:58;;;;;;;0.65;0.65;;;;;;;;;;5074547;28;20112;-87
2022/12/18 01:47:31;;;;;;;0.30;0.30;;;;;;;;;;5076531;28;20048;-87
2022/12/18 01:50:01;;;;;;;3.10;1.08;;;;;;;;;;5068898;28;20156;-87
2022/12/18 01:52:31;;;;;;;3.42;0.60;;;;;;;;;;5071822;28;20132;-86
2022/12/18 01:54:59;;;;;;;1.20;1.20;;;;;;;;;;5069858;28;20040;-86
2022/12/18 01:57:29;;;;;;;22.02;1.10;;;;;;;;;;5071166;28;20064;-87
2022/12/18 02:00:00;;;;;;;1.42;1.02;;;;;;;;;;5076685;28;20052;-87
2022/12/18 02:02:30;;;;;;;0.95;0.90;;;;;;;;;;5077096;28;20104;-88
2022/12/18 02:04:58;;;;;;;3.72;1.38;;;;;;;;;;5073164;28;20052;-87
2022/12/18 02:07:30;;;;;;;4.85;1.45;;;;;;;;;;5072644;28;20077;-87
2022/12/18 02:10:01;;;;;;;0.55;0.55;;;;;;;;;;5070886;28;20040;-87
2022/12/18 02:12:34;;;;;;;2.97;1.02;;;;;;;;;;5075991;28;20048;-87
2022/12/18 02:15:08;;;;;;;1.02;0.52;;;;;;;;;;5074457;28;20036;-87
2022/12/18 02:17:40;;;;;;;1.48;0.63;;;;;;;;;;5074734;28;20527;-88
2022/12/18 02:20:14;;;;;;;0.80;0.80;;;;;;;;;;5065673;28;20143;-87
2022/12/18 02:22:49;;;;;;;0.40;0.40;;;;;;;;;;5076382;28;20053;-87
2022/12/18 02:25:23;;;;;;;2.17;1.15;;;;;;;;;;5067861;28;20044;-86
2022/12/18 02:27:54;;;;;;;8.93;1.25;;;;;;;;;;5073927;28;20139;-87
2022/12/18 02:30:23;;;;;;;0.30;0.30;;;;;;;;;;5071222;28;20048;-88
2022/12/18 02:32:54;;;;;;;1.88;1.80;;;;;;;;;;5070293;28;20059;-86
2022/12/18 02:35:24;;;;;;;0.95;0.95;;;;;;;;;;5076206;28;20091;-87
2022/12/18 02:37:57;;;;;;;0.82;0.82;;;;;;;;;;5071847;28;20048;-87
2022/12/18 02:40:27;;;;;;;0.93;0.93;;;;;;;;;;5069555;28;20049;-87
2022/12/18 02:42:57;;;;;;;1.15;0.77;;;;;;;;;;5070967;28;20064;-88
2022/12/18 02:45:26;;;;;;;0.52;0.52;;;;;;;;;;5075588;28;20048;-87
2022/12/18 02:47:54;;;;;;;1.48;1.38;;;;;;;;;;5071848;28;20048;-87
2022/12/18 02:50:28;;;;;;;0.85;0.85;;;;;;;;;;5072453;28;20052;-87
2022/12/18 02:53:03;;;;;;;1.08;1.08;;;;;;;;;;5071702;28;20114;-87
2022/12/18 02:55:35;;;;;;;0.30;0.30;;;;;;;;;;5073821;28;20052;-87
2022/12/18 02:58:09;;;;;;;1.45;0.75;;;;;;;;;;5061253;28;20401;-84
2022/12/18 03:00:39;;;;;;;9.25;0.65;;;;;;;;;;5064429;28;20060;-86
2022/12/18 03:03:10;;;;;;;1.05;1.05;;;;;;;;;;5072511;28;20060;-87
2022/12/18 03:05:42;;;;;;;2.90;1.08;;;;;;;;;;5072653;28;20080;-86
2022/12/18 03:08:14;;;;;;;0.32;0.32;;;;;;;;;;5058899;28;20045;-86
2022/12/18 03:10:44;;;;;;;1.00;0.80;;;;;;;;;;5048571;28;20049;-86
2022/12/18 03:13:15;;;;;;;0.60;0.60;;;;;;;;;;5068101;28;20061;-87
2022/12/18 03:15:45;;;;;;;2.83;1.42;;;;;;;;;;5073422;28;20048;-87
2022/12/18 03:18:16;;;;;;;0.95;0.95;;;;;;;;;;5062721;28;20044;-87
2022/12/18 03:20:46;;;;;;;2.10;2.00;;;;;;;;;;5070956;28;20048;-87
2022/12/18 03:23:16;;;;;;;1.15;1.15;;;;;;;;;;5072694;28;20409;-87
2022/12/18 03:25:46;;;;;;;0.88;0.88;;;;;;;;;;5068115;28;20143;-87
2022/12/18 03:28:17;;;;;;;0.50;0.50;;;;;;;;;;5071849;28;20411;-88
2022/12/18 03:30:47;;;;;;;1.10;0.57;;;;;;;;;;5068745;28;20067;-87
2022/12/18 03:33:19;;;;;;;1.85;0.82;;;;;;;;;;5066579;28;20102;-87
2022/12/18 03:35:48;;;;;;;0.60;0.60;;;;;;;;;;5072345;28;20079;-87
2022/12/18 03:38:16;;;;;;;0.75;0.75;;;;;;;;;;5069152;28;20037;-87
2022/12/18 03:40:53;;;;;;;0.40;0.40;;;;;;;;;;5071389;28;20041;-87
2022/12/18 03:43:29;;;;;;;10.13;1.73;;;;;;;;;;5063281;28;20059;-87
2022/12/18 03:46:07;;;;;;;0.95;0.88;;;;;;;;;;5072885;28;20177;-87
2022/12/18 03:48:39;;;;;;;0.38;0.38;;;;;;;;;;5067840;28;20052;-88
2022/12/18 03:51:11;;;;;;;0.30;0.30;;;;;;;;;;5058706;28;20057;-87
2022/12/18 03:53:43;;;;;;;0.50;0.50;;;;;;;;;;5074320;28;20056;-87
2022/12/18 03:56:13;;;;;;;0.43;0.43;;;;;;;;;;5072728;28;20059;-87
2022/12/18 03:58:44;;;;;;;0.85;0.85;;;;;;;;;;5068577;28;20140;-86
2022/12/18 04:01:15;;;;;;;0.75;0.75;;;;;;;;;;5068147;28;20052;-87
2022/12/18 04:03:44;;;;;;;1.40;1.38;;;;;;;;;;5072994;28;20465;-86
2022/12/18 04:06:13;;;;;;;0.30;0.30;;;;;;;;;;5070679;28;20087;-87
2022/12/18 04:08:42;;;;;;;2.50;1.00;;;;;;;;;;5068111;28;20057;-87
2022/12/18 04:11:10;;;;;;;1.10;0.65;;;;;;;;;;5071491;28;20052;-83
2022/12/18 04:13:39;;;;;;;0.73;0.73;;;;;;;;;;5072206;28;20080;-86
2022/12/18 04:16:10;;;;;;;0.57;0.57;;;;;;;;;;5062546;28;20045;-84
2022/12/18 04:18:39;;;;;;;0.55;0.55;;;;;;;;;;5070649;28;20041;-86
2022/12/18 04:21:07;;;;;;;2.17;0.93;;;;;;;;;;5071309;28;20071;-87
2022/12/18 04:23:36;;;;;;;0.85;0.85;;;;;;;;;;5067482;28;20417;-86
2022/12/18 04:26:05;;;;;;;0.50;0.50;;;;;;;;;;5065740;28;20044;-87
2022/12/18 04:28:33;;;;;;;6.05;1.35;;;;;;;;;;5072056;28;20095;-87
2022/12/18 04:31:02;;;;;;;0.40;0.40;;;;;;;;;;5068681;28;20064;-86
2022/12/18 04:33:32;;;;;;;3.20;1.08;;;;;;;;;;5071873;28;20128;-86
2022/12/18 04:36:00;;;;;;;0.57;0.57;;;;;;;;;;5071911;28;20048;-87
2022/12/18 04:38:29;;;;;;;3.40;0.73;;;;;;;;;;5070902;28;20132;-85
2022/12/18 04:40:57;;;;;;;0.77;0.77;;;;;;;;;;5068463;28;20041;-86
2022/12/18 04:43:26;;;;;;;1.67;0.98;;;;;;;;;;5072350;28;20127;-86
2022/12/18 04:45:54;;;;;;;0.30;0.30;;;;;;;;;;5064551;28;20041;-87
2022/12/18 04:48:24;;;;;;;1.05;0.82;;;;;;;;;;5070877;28;20048;-86
2022/12/18 04:50:54;;;;;;;1.55;1.13;;;;;;;;;;5068828;28;20139;-86
2022/12/18 04:53:23;;;;;;;3.28;1.58;;;;;;;;;;5072437;28;20086;-86
2022/12/18 04:55:51;;;;;;;1.48;1.30;;;;;;;;;;5071895;28;20485;-86
2022/12/18 04:58:19;;;;;;;2.15;0.70;;;;;;;;;;5066551;28;20041;-86
2022/12/18 05:00:48;;;;;;;1.27;1.25;;;;;;;;;;5070399;28;20055;-84
2022/12/18 05:03:16;;;;;;;8.73;1.55;;;;;;;;;;5072138;28;20059;-86
2022/12/18 05:05:44;;;;;;;0.70;0.70;;;;;;;;;;5068639;28;20051;-87
2022/12/18 05:08:14;;;;;;;0.75;0.75;;;;;;;;;;5064286;28;20049;-86
2022/12/18 05:14:15;;;;;;;0.30;0.30;;;;;;;;;;5066817;28;20042;-87
2022/12/18 05:16:44;;;;;;;0.85;0.85;;;;;;;;;;5058346;28;20136;-86
2022/12/18 05:19:13;;;;;;;0.88;0.85;;;;;;;;;;5066908;28;20056;-86
2022/12/18 05:21:41;;;;;;;0.40;0.40;;;;;;;;;;5063759;28;20055;-87
2022/12/18 05:24:14;;;;;;;1.08;0.93;;;;;;;;;;5069924;28;20499;-87
2022/12/18 05:26:43;;;;;;;1.67;1.63;;;;;;;;;;5066159;28;20561;-87
2022/12/18 05:29:12;;;;;;;0.30;0.30;;;;;;;;;;5067698;28;20109;-87
2022/12/18 05:31:43;;;;;;;0.30;0.30;;;;;;;;;;5065107;28;20041;-87
2022/12/18 05:34:12;;;;;;;1.75;1.65;;;;;;;;;;5069322;28;20056;-86
2022/12/18 05:36:41;;;;;;;0.65;0.65;;;;;;;;;;5065659;28;20048;-86
2022/12/18 05:39:10;;;;;;;0.65;0.60;;;;;;;;;;5066895;28;20049;-86
2022/12/18 05:41:40;;;;;;;1.00;0.52;;;;;;;;;;5066386;28;20052;-87
2022/12/18 05:44:09;;;;;;;0.30;0.30;;;;;;;;;;5070231;28;20067;-86
2022/12/18 05:46:39;;;;;;;1.17;1.17;;;;;;;;;;5066001;28;20057;-87
2022/12/18 05:49:09;;;;;;;0.50;0.50;;;;;;;;;;5068269;28;20361;-87
2022/12/18 05:51:38;;;;;;;0.50;0.50;;;;;;;;;;5066221;28;20064;-87
2022/12/18 05:54:08;;;;;;;3.38;1.75;;;;;;;;;;5067970;28;20086;-87
2022/12/18 05:56:37;;;;;;;0.57;0.57;;;;;;;;;;5064507;28;20099;-87
2022/12/18 05:59:07;;;;;;;0.30;0.30;;;;;;;;;;5067801;28;20052;-86
2022/12/18 06:01:36;;;;;;;0.30;0.30;;;;;;;;;;5067548;28;20056;-87
2022/12/18 06:04:05;;;;;;;0.45;0.45;;;;;;;;;;5067869;28;20063;-87
2022/12/18 06:06:34;;;;;;;2.00;0.85;;;;;;;;;;5065265;28;20041;-86
2022/12/18 06:09:09;;;;;;;1.27;1.20;;;;;;;;;;5064584;28;20076;-86
2022/12/18 06:11:38;;;;;;;0.38;0.38;;;;;;;;;;5066436;28;20049;-87
2022/12/18 06:14:08;;;;;;;5.10;1.05;;;;;;;;;;5065967;28;20048;-86
2022/12/18 06:16:37;;;;;;;1.13;0.82;;;;;;;;;;5069515;28;20097;-86
2022/12/18 06:19:09;;;;;;;0.60;0.60;;;;;;;;;;5060775;28;20132;-87
2022/12/18 06:21:37;;;;;;;2.22;0.70;;;;;;;;;;5062456;28;20059;-86
2022/12/18 06:24:06;;;;;;;0.30;0.30;;;;;;;;;;5062392;28;20051;-84
2022/12/18 06:26:35;;;;;;;0.57;0.57;;;;;;;;;;5064995;28;20049;-85
2022/12/18 06:29:03;;;;;;;0.95;0.88;;;;;;;;;;5064958;28;20045;-86
2022/12/18 06:31:33;;;;;;;3.70;0.73;;;;;;;;;;5067704;28;20048;-86
2022/12/18 06:34:06;;;;;;;3.53;1.25;;;;;;;;;;5064814;28;20233;-85
2022/12/18 06:36:44;;;;;;;0.30;0.30;;;;;;;;;;5072311;28;20056;-85
2022/12/18 06:39:14;;;;;;;0.43;0.43;;;;;;;;;;5066670;28;20048;-85
2022/12/18 06:41:43;;;;;;;0.50;0.50;;;;;;;;;;5068816;28;20048;-86
2022/12/18 06:44:12;;;;;;;1.10;1.10;;;;;;;;;;5069843;28;20084;-85
2022/12/18 06:46:42;;;;;;;1.45;1.23;;;;;;;;;;5067186;28;20049;-87
2022/12/18 06:49:12;;;;;;;1.85;1.13;;;;;;;;;;5064908;28;20065;-86
2022/12/18 06:51:42;;;;;;;0.30;0.30;;;;;;;;;;5050072;28;20056;-86
2022/12/18 06:54:11;;;;;;;1.20;0.60;;;;;;;;;;5060315;28;20358;-86
2022/12/18 06:56:40;;;;;;;2.38;1.65;;;;;;;;;;5066226;28;20044;-86
2022/12/18 06:59:09;;;;;;;1.15;0.57;;;;;;;;;;5067017;28;20055;-86
2022/12/18 07:01:38;;;;;;;1.30;1.20;;;;;;;;;;5061316;28;20054;-86
2022/12/18 07:04:09;;;;;;;1.33;1.23;;;;;;;;;;5069864;28;20131;-86
2022/12/18 07:06:40;;;;;;;2.28;0.75;;;;;;;;;;5067167;28;20126;-86
2022/12/18 07:09:09;;;;;;;2.25;1.00;;;;;;;;;;5061558;28;20106;-85
2022/12/18 07:11:38;;;;;;;1.55;1.15;;;;;;;;;;5065603;28;20185;-87
2022/12/18 07:14:07;;;;;;;1.38;1.38;;;;;;;;;;5064438;28;20071;-87
2022/12/18 07:16:37;;;;;;;0.73;0.73;;;;;;;;;;5062100;28;20041;-87
2022/12/18 07:19:07;;;;;;;4.13;1.35;;;;;;;;;;5066540;28;20072;-87
2022/12/18 07:21:37;;;;;;;0.82;0.77;;;;;;;;;;5072174;28;20055;-87
2022/12/18 07:24:07;;;;;;;1.75;1.50;;;;;;;;;;5067498;28;20055;-86
2022/12/18 07:26:36;;;;;;;0.40;0.40;;;;;;;;;;5065141;28;20071;-84
2022/12/18 07:29:04;;;;;;;5.00;0.90;;;;;;;;;;5065372;28;20052;-85
2022/12/18 07:31:33;;;;;;;5.03;2.15;;;;;;;;;;5064206;28;20052;-85
2022/12/18 07:34:02;;;;;;;0.80;0.80;;;;;;;;;;5069208;28;20044;-88
2022/12/18 07:36:37;;;;;;;0.63;0.63;;;;;;;;;;5067904;28;20143;-88
2022/12/18 07:39:06;;;;;;;0.57;0.57;;;;;;;;;;5065404;28;20045;-88
2022/12/18 07:41:35;;;;;;;7.70;1.08;;;;;;;;;;5063807;28;20049;-88
2022/12/18 07:44:05;;;;;;;0.88;0.88;;;;;;;;;;5072441;28;20049;-88
2022/12/18 07:46:36;;;;;;;0.73;0.70;;;;;;;;;;5071063;28;20529;-87
2022/12/18 07:49:05;;;;;;;0.45;0.45;;;;;;;;;;5065523;28;20048;-88
2022/12/18 07:51:33;;;;;;;0.60;0.60;;;;;;;;;;5069513;28;20054;-88
2022/12/18 07:54:04;;;;;;;3.22;1.20;;;;;;;;;;5070191;28;20056;-88
2022/12/18 07:56:33;;;;;;;1.50;0.50;;;;;;;;;;5066105;28;20044;-87
2022/12/18 07:59:08;;;;;;;1.35;1.25;;;;;;;;;;5067014;28;20056;-88
2022/12/18 08:01:36;;;;;;;1.40;1.30;;;;;;;;;;5066464;28;20040;-88
2022/12/18 08:04:05;;;;;;;0.40;0.40;;;;;;;;;;5059798;28;20045;-88
2022/12/18 08:06:34;;;;;;;4.47;1.60;;;;;;;;;;5060101;28;20063;-87
2022/12/18 08:09:04;;;;;;;1.20;0.52;;;;;;;;;;5054562;28;20057;-87
2022/12/18 08:11:33;;;;;;;0.47;0.47;;;;;;;;;;5068534;28;20067;-87
2022/12/18 08:14:01;;;;;;;4.82;0.75;;;;;;;;;;5058985;28;20461;-86
2022/12/18 08:16:30;;;;;;;1.65;1.05;;;;;;;;;;5068861;28;20531;-87
2022/12/18 08:18:59;;;;;;;0.30;0.30;;;;;;;;;;5062445;28;20068;-87
2022/12/18 08:21:30;;;;;;;0.60;0.50;;;;;;;;;;5067161;28;20132;-87
2022/12/18 08:24:01;;;;;;;4.57;0.65;;;;;;;;;;5056540;28;20048;-86
2022/12/18 08:26:32;;;;;;;0.63;0.63;;;;;;;;;;5066116;28;20322;-86
2022/12/18 08:29:01;;;;;;;0.30;0.30;;;;;;;;;;5060714;28;20382;-86
2022/12/18 08:31:31;;;;;;;0.75;0.75;;;;;;;;;;5061069;28;20063;-86
2022/12/18 08:34:00;;;;;;;0.55;0.55;;;;;;;;;;5068795;28;20155;-86
2022/12/18 08:36:31;;;;;;;0.50;0.50;;;;;;;;;;5061769;28;20131;-85
2022/12/18 08:39:02;;;;;;;1.10;0.90;;;;;;;;;;5062744;28;20037;-89
2022/12/18 08:41:33;;;;;;;0.50;0.50;;;;;;;;;;5065222;28;20045;-86
2022/12/18 08:46:48;;;;;;;0.50;0.50;;;;;;;;;;5059999;28;20051;-87
2022/12/18 08:49:16;;;;;;;0.40;0.40;;;;;;;;;;5065588;28;20056;-87
2022/12/18 08:51:45;;;;;;;0.65;0.65;;;;;;;;;;5067682;28;20500;-88
2022/12/18 08:54:14;;;;;;;1.95;1.35;;;;;;;;;;5069457;28;20072;-87
2022/12/18 08:56:46;;;;;;;0.57;0.57;;;;;;;;;;5060499;28;20048;-87
2022/12/18 08:59:17;;;;;;;1.98;0.60;;;;;;;;;;5059074;28;20563;-86
2022/12/18 09:01:48;;;;;;;1.05;1.05;;;;;;;;;;5059337;28;20107;-87
2022/12/18 09:04:18;;;;;;;0.90;0.90;;;;;;;;;;5065695;28;20049;-89
2022/12/18 09:06:46;;;;;;;0.30;0.30;;;;;;;;;;5057786;28;20205;-86
2022/12/18 09:09:16;;;;;;;0.60;0.60;;;;;;;;;;5059146;28;20102;-87
2022/12/18 09:11:46;;;;;;;1.10;0.80;;;;;;;;;;5066298;28;20052;-87
2022/12/18 09:14:15;;;;;;;0.40;0.40;;;;;;;;;;5057082;28;20076;-88
2022/12/18 09:16:44;;;;;;;1.70;1.60;;;;;;;;;;5057225;28;20056;-87
2022/12/18 09:19:14;;;;;;;0.80;0.50;;;;;;;;;;5056402;28;20052;-87
2022/12/18 09:21:42;;;;;;;0.38;0.38;;;;;;;;;;5062317;28;20513;-87
2022/12/18 09:24:15;;;;;;;0.98;0.77;;;;;;;;;;5056679;28;20048;-86
2022/12/18 09:26:47;;;;;;;0.77;0.77;;;;;;;;;;5061448;28;20551;-87
2022/12/18 09:29:16;;;;;;;4.43;0.60;;;;;;;;;;5059466;28;20083;-87
2022/12/18 09:31:46;;;;;;;0.40;0.40;;;;;;;;;;5063756;28;20115;-87
2022/12/18 09:34:21;;;;;;;0.40;0.40;;;;;;;;;;5064156;28;20530;-86
2022/12/18 09:36:50;;;;;;;;;;;;;;;;;;5058729;28;20473;-85
2022/12/18 09:39:19;;;;;;;0.45;0.45;;;;;;;;;;5060735;28;19967;-88
2022/12/18 09:41:54;;;;;;;0.98;0.98;;;;;;;;;;5064481;28;20501;-85
2022/12/18 09:44:25;;;;;;;3.63;0.68;;;;;;;;;;5064792;28;20048;-86
2022/12/18 09:47:00;;;;;;;0.40;0.40;;;;;;;;;;5053126;28;20118;-84
2022/12/18 09:49:32;;;;;;;0.63;0.63;;;;;;;;;;5064638;28;20056;-88
2022/12/18 09:52:06;;;;;;;0.40;0.40;;;;;;;;;;5066219;28;20063;-86
2022/12/18 09:54:37;;;;;;;0.40;0.40;;;;;;;;;;5065545;28;20064;-86
2022/12/18 09:57:12;;;;;;;0.35;0.35;;;;;;;;;;5064860;28;20099;-88
2022/12/18 09:59:41;;;;;;;1.20;1.02;;;;;;;;;;5068193;28;20048;-89
2022/12/18 10:02:16;;;;;;;0.40;0.40;;;;;;;;;;5064831;28;20555;-86
2022/12/18 10:04:47;;;;;;;0.95;0.95;;;;;;;;;;5064157;28;20053;-88
2022/12/18 10:07:19;;;;;;;0.80;0.80;;;;;;;;;;5068081;28;20052;-86
2022/12/18 10:09:53;;;;;;;3.50;1.60;;;;;;;;;;5070525;28;20556;-87
2022/12/18 10:12:26;;;;;;;0.47;0.47;;;;;;;;;;5071530;28;20583;-87
2022/12/18 10:14:59;;;;;;;4.82;0.73;;;;;;;;;;5063916;28;20318;-86
2022/12/18 10:17:29;;;;;;;0.40;0.40;;;;;;;;;;5065204;28;20048;-87
2022/12/18 10:20:01;;;;;;;0.30;0.30;;;;;;;;;;5066005;28;20046;-87
2022/12/18 10:22:42;;;;;;;0.60;0.60;;;;;;;;;;5071236;28;20036;-85
2022/12/18 10:25:19;;;;;;;0.50;0.50;;;;;;;;;;5069994;28;20062;-84
2022/12/18 10:27:50;;;;;;;0.35;0.35;;;;;;;;;;5072686;28;20603;-85
2022/12/18 10:30:19;;;;;;;2.47;1.05;;;;;;;;;;5069941;28;20052;-85
2022/12/18 10:32:48;;;;;;;1.48;1.30;;;;;;;;;;5073286;28;20533;-84
2022/12/18 10:35:20;;;;;;;0.47;0.47;;;;;;;;;;5060500;28;20063;-85
2022/12/18 10:38:01;;;;;;;3.03;0.63;;;;;;;;;;5062443;28;20258;-84
2022/12/18 10:40:30;;;;;;;1.58;1.15;;;;;;;;;;5059529;28;20070;-86
2022/12/18 10:43:07;;;;;;;0.30;0.30;;;;;;;;;;5073935;28;20316;-85
2022/12/18 10:45:36;;;;;;;0.60;0.60;;;;;;;;;;5067797;28;20048;-85
2022/12/18 10:48:05;;;;;;;0.88;0.82;;;;;;;;;;5069595;28;20415;-87
2022/12/18 10:50:35;;;;;;;2.80;1.25;;;;;;;;;;5069422;28;20049;-85
2022/12/18 10:53:25;;;;;;;1.35;1.23;;;;;;;;;;5072057;28;20141;-85
2022/12/18 10:55:55;;;;;;;1.35;1.00;;;;;;;;;;5070428;28;20036;-84
2022/12/18 10:58:27;;;;;;;0.50;0.50;;;;;;;;;;5060430;28;20456;-86
2022/12/18 11:01:04;;;;;;;0.45;0.45;;;;;;;;;;5074334;28;20051;-85
2022/12/18 11:03:35;;;;;;;0.35;0.35;;;;;;;;;;5067695;28;20049;-84
2022/12/18 11:06:05;;;;;;;0.30;0.30;;;;;;;;;;5072312;28;20047;-84
2022/12/18 11:08:34;;;;;;;0.20;0.20;;;;;;;;;;5070950;28;20072;-85
2022/12/18 11:11:03;;;;;;;0.30;0.30;;;;;;;;;;5072938;28;20044;-85
2022/12/18 11:13:33;;;;;;;0.57;0.57;;;;;;;;;;5072783;28;20111;-85
2022/12/18 11:16:02;;;;;;;0.52;0.52;;;;;;;;;;5072949;28;20123;-85
2022/12/18 11:18:32;;;;;;;0.40;0.40;;;;;;;;;;5073299;28;20072;-84
2022/12/18 11:21:01;;;;;;;10.02;1.25;;;;;;;;;;5069838;28;20052;-84
2022/12/18 11:23:30;;;;;;;0.30;0.30;;;;;;;;;;5068137;28;20063;-84
2022/12/18 11:26:00;;;;;;;0.93;0.93;;;;;;;;;;5064526;28;20073;-84
2022/12/18 11:28:38;;;;;;;0.95;0.95;;;;;;;;;;5069656;28;20059;-84
2022/12/18 11:31:13;;;;;;;0.38;0.38;;;;;;;;;;5071198;28;20044;-84
2022/12/18 11:33:44;;;;;;;0.50;0.50;;;;;;;;;;5073703;28;20052;-84
2022/12/18 11:36:34;;;;;;;0.40;0.40;;;;;;;;;;5072663;28;20044;-85
2022/12/18 11:39:07;;;;;;;0.75;0.70;;;;;;;;;;5071961;28;20052;-85
2022/12/18 11:44:30;;;;;;;1.88;0.68;;;;;;;;;;5062500;28;20496;-83
2022/12/18 11:47:01;;;;;;;0.30;0.30;;;;;;;;;;5066358;28;20055;-84
2022/12/18 11:49:32;;;;;;;0.38;0.38;;;;;;;;;;5072369;28;20139;-83
2022/12/18 11:52:04;;;;;;;0.75;0.75;;;;;;;;;;5065767;28;20349;-85
2022/12/18 11:54:33;;;;;;;0.30;0.30;;;;;;;;;;5071735;28;20544;-85
2022/12/18 11:57:07;;;;;;;0.40;0.40;;;;;;;;;;5055303;28;20113;-86
2022/12/18 11:59:40;;;;;;;1.50;1.27;;;;;;;;;;5073205;28;20059;-85
2022/12/18 12:02:17;;;;;;;0.50;0.50;;;;;;;;;;5071418;28;20127;-85
2022/12/18 12:04:55;;;;;;;0.65;0.60;;;;;;;;;;5060344;28;20057;-85
2022/12/18 12:07:28;;;;;;;1.40;1.30;;;;;;;;;;5064205;28;20060;-84
2022/12/18 12:10:02;;;;;;;1.48;0.52;;;;;;;;;;5066523;28;20619;-85
2022/12/18 12:12:45;;;;;;;0.30;0.30;;;;;;;;;;5073089;28;20086;-85
2022/12/18 12:15:24;;;;;;;0.43;0.43;;;;;;;;;;5072748;28;20461;-85
2022/12/18 12:17:59;;;;;;;0.50;0.50;;;;;;;;;;5065003;28;20459;-86
2022/12/18 12:20:44;;;;;;;1.42;1.33;;;;;;;;;;5060235;28;20171;-85
2022/12/18 12:23:17;;;;;;;0.30;0.30;;;;;;;;;;5072758;28;20083;-85
2022/12/18 12:25:48;;;;;;;0.63;0.63;;;;;;;;;;5068101;28;20068;-86
2022/12/18 12:28:22;;;;;;;2.53;2.42;;;;;;;;;;5071621;28;20131;-85
2022/12/18 12:30:56;;;;;;;5.70;0.73;;;;;;;;;;5072098;28;20120;-86
2022/12/18 12:33:31;;;;;;;0.40;0.40;;;;;;;;;;5071631;28;20090;-85
2022/12/18 12:36:03;;;;;;;0.65;0.65;;;;;;;;;;5072515;28;20045;-85
2022/12/18 12:38:35;;;;;;;0.55;0.55;;;;;;;;;;5066357;28;20045;-84
2022/12/18 12:41:05;;;;;;;0.95;0.95;;;;;;;;;;5068273;28;20040;-85
2022/12/18 12:43:36;;;;;;;0.45;0.45;;;;;;;;;;5072125;28;20408;-84
2022/12/18 12:46:08;;;;;;;0.77;0.73;;;;;;;;;;5073006;28;20044;-85
2022/12/18 12:48:40;;;;;;;0.35;0.35;;;;;;;;;;5070748;28;20477;-86
2022/12/18 12:51:12;;;;;;;5.68;0.95;;;;;;;;;;5068072;28;20095;-87
2022/12/18 12:53:42;;;;;;;1.85;0.60;;;;;;;;;;5066669;28;20102;-86
2022/12/18 12:56:13;;;;;;;0.60;0.60;;;;;;;;;;5067623;28;20047;-86
2022/12/18 12:58:48;;;;;;;0.40;0.40;;;;;;;;;;5069413;28;20048;-86
2022/12/18 13:01:24;;;;;;;1.40;1.30;;;;;;;;;;5071183;28;20049;-86
2022/12/18 13:03:58;;;;;;;1.48;1.38;;;;;;;;;;5072452;28;20053;-86
2022/12/18 13:06:35;;;;;;;0.20;0.20;;;;;;;;;;5071531;28;20178;-86
2022/12/18 13:09:06;;;;;;;0.20;0.20;;;;;;;;;;5068345;28;20386;-86
2022/12/18 13:14:32;;;;;;;0.45;0.45;;;;;;;;;;5071819;28;20052;-86
2022/12/18 13:17:18;;;;;;;0.40;0.40;;;;;;;;;;5071574;28;20048;-86
2022/12/18 13:19:50;;;;;;;1.98;0.57;;;;;;;;;;5061645;28;20064;-86
2022/12/18 13:22:23;;;;;;;0.73;0.73;;;;;;;;;;5068799;28;20048;-87
2022/12/18 13:24:52;;;;;;;0.80;0.38;;;;;;;;;;5063845;28;20093;-86
2022/12/18 13:27:39;;;;;;;0.75;0.35;;;;;;;;;;5069951;28;20076;-87
2022/12/18 13:30:42;;;;;;;1.77;1.65;;;;;;;;;;5069796;28;20056;-87
2022/12/18 13:33:29;;;;;;;9.32;1.25;;;;;;;;;;5071789;28;20044;-86
2022/12/18 13:36:10;;;;;;;1.60;1.50;;;;;;;;;;5071824;28;20087;-87
2022/12/18 13:38:40;;;;;;;0.30;0.30;;;;;;;;;;5064375;28;20053;-86
2022/12/18 13:41:24;;;;;;;0.43;0.43;;;;;;;;;;5070992;28;20052;-87
2022/12/18 13:43:54;;;;;;;0.28;0.28;;;;;;;;;;5071081;28;20076;-86
2022/12/18 13:46:24;;;;;;;0.93;0.57;;;;;;;;;;5065713;28;20131;-86
2022/12/18 13:48:55;;;;;;;0.50;0.50;;;;;;;;;;5071269;28;20071;-89
2022/12/18 13:51:26;;;;;;;0.40;0.40;;;;;;;;;;5069613;28;20041;-86
2022/12/18 13:53:56;;;;;;;0.65;0.65;;;;;;;;;;5068290;28;20040;-87
2022/12/18 13:56:27;;;;;;;1.95;0.75;;;;;;;;;;5066921;28;20055;-86
2022/12/18 13:59:08;;;;;;;0.50;0.50;;;;;;;;;;5070805;28;20080;-86
2022/12/18 14:01:38;;;;;;;0.55;0.55;;;;;;;;;;5065920;28;20092;-86
2022/12/18 14:04:11;;;;;;;0.40;0.40;;;;;;;;;;5064771;28;20048;-87
2022/12/18 14:06:42;;;;;;;0.30;0.30;;;;;;;;;;5059309;28;20052;-86
2022/12/18 14:09:15;;;;;;;1.00;1.00;;;;;;;;;;5061383;28;20409;-87
2022/12/18 14:11:49;;;;;;;7.13;1.15;;;;;;;;;;5065997;28;20745;-86
2022/12/18 14:14:19;;;;;;;0.93;0.93;;;;;;;;;;5070587;28;20060;-86
2022/12/18 14:16:49;;;;;;;0.30;0.30;;;;;;;;;;5071029;28;20605;-86
2022/12/18 14:19:19;;;;;;;2.28;0.77;;;;;;;;;;5068554;28;20052;-87
2022/12/18 14:21:51;;;;;;;3.72;2.50;;;;;;;;;;5070836;28;20094;-86
2022/12/18 14:24:21;;;;;;;0.40;0.40;;;;;;;;;;5067145;28;21263;-83
2022/12/18 14:26:51;;;;;;;0.30;0.30;;;;;;;;;;5061061;28;20049;-87
2022/12/18 14:29:24;;;;;;;0.43;0.43;;;;;;;;;;5065669;28;20060;-86
2022/12/18 14:32:11;;;;;;;0.93;0.80;;;;;;;;;;5064348;28;20634;-86
2022/12/18 14:34:45;;;;;;;1.52;1.52;;;;;;;;;;5060816;28;20044;-84
2022/12/18 14:37:17;;;;;;;0.77;0.77;;;;;;;;;;5058248;28;20063;-87
2022/12/18 14:39:58;;;;;;;0.35;0.32;;;;;;;;;;5065503;28;20060;-87
2022/12/18 14:42:34;;;;;;;1.27;0.57;;;;;;;;;;5064823;28;20128;-87
2022/12/18 14:45:31;;;;;;;2.92;0.82;;;;;;;;;;5066603;28;20309;-86
2022/12/18 14:48:09;;;;;;;1.55;1.48;;;;;;;;;;5026830;28;20064;-88
2022/12/18 14:50:40;;;;;;;0.30;0.30;;;;;;;;;;5010941;28;20050;-87
2022/12/18 14:53:21;;;;;;;0.65;0.65;;;;;;;;;;5021022;28;20603;-87
2022/12/18 14:55:51;;;;;;;1.70;0.93;;;;;;;;;;5018033;28;20054;-88
2022/12/18 14:58:19;;;;;;;0.98;0.68;;;;;;;;;;5023071;28;20443;-87
2022/12/18 15:00:48;;;;;;;0.65;0.65;;;;;;;;;;5023363;28;20326;-88
2022/12/18 15:03:18;;;;;;;0.43;0.43;;;;;;;;;;5023087;28;20577;-87
2022/12/18 15:05:48;;;;;;;1.00;0.93;;;;;;;;;;5028277;28;20156;-87
2022/12/18 15:08:32;;;;;;;1.42;1.15;;;;;;;;;;5024391;28;20108;-88
2022/12/18 15:11:01;;;;;;;;;;;;;;;;;;5016611;28;20056;-87
2022/12/18 15:13:30;;;;;;;1.50;1.08;;;;;;;;;;5023797;28;20050;-89
2022/12/18 15:16:04;;;;;;;2.38;1.55;;;;;;;;;;5057539;28;20131;-88
2022/12/18 15:18:34;;;;;;;1.25;1.17;;;;;;;;;;5067582;28;20064;-88
2022/12/18 15:21:10;;;;;;;0.40;0.40;;;;;;;;;;5067197;28;20068;-88